sensor_id;sensor_type;location;lat;lon;timestamp;temperature;humidity
40253;DHT22;25972;51.854;4.534;2023-07-24T00:01:27;18.10;99.90
40253;DHT22;25972;51.854;4.534;2023-07-24T00:03:53;18.20;99.90
40253;DHT22;25972;51.854;4.534;2023-07-24T00:06:20;18.20;99.90
40253;DHT22;25972;51.854;4.534;2023-07-24T00:08:46;18.10;99.90
40253;DHT22;25972;51.854;4.534;2023-07-24T00:11:12;18.20;99.90
40253;DHT22;25972;51.854;4.534;2023-07-24T00:13:38;18.20;99.90
40253;DHT22;25972;51.854;4.534;2023-07-24T00:16:08;18.10;99.90
40253;DHT22;25972;51.854;4.534;2023-07-24T00:18:34;18.10;99.90
40253;DHT22;25972;51.854;4.534;2023-07-24T00:21:00;18.10;99.90
40253;DHT22;25972;51.854;4.534;2023-07-24T00:23:26;18.10;99.90
40253;DHT22;25972;51.854;4.534;2023-07-24T00:25:52;18.10;99.90
40253;DHT22;25972;51.854;4.534;2023-07-24T00:28:19;18.10;99.90
40253;DHT22;25972;51.854;4.534;2023-07-24T00:30:45;18.10;99.90
40253;DHT22;25972;51.854;4.534;2023-07-24T00:33:12;18.20;99.90
40253;DHT22;25972;51.854;4.534;2023-07-24T00:35:38;18.20;99.90
40253;DHT22;25972;51.854;4.534;2023-07-24T00:38:04;18.10;99.90
40253;DHT22;25972;51.854;4.534;2023-07-24T00:40:30;18.20;99.90
40253;DHT22;25972;51.854;4.534;2023-07-24T00:42:56;18.20;99.90
40253;DHT22;25972;51.854;4.534;2023-07-24T00:45:22;18.20;99.90
40253;DHT22;25972;51.854;4.534;2023-07-24T00:47:49;18.20;99.90
40253;DHT22;25972;51.854;4.534;2023-07-24T00:50:18;18.20;99.90
40253;DHT22;25972;51.854;4.534;2023-07-24T00:52:44;18.10;99.90
40253;DHT22;25972;51.854;4.534;2023-07-24T00:55:12;18.20;99.90
40253;DHT22;25972;51.854;4.534;2023-07-24T00:57:41;18.10;99.90
40253;DHT22;25972;51.854;4.534;2023-07-24T01:00:08;18.10;99.90
40253;DHT22;25972;51.854;4.534;2023-07-24T01:02:34;18.10;99.90
40253;DHT22;25972;51.854;4.534;2023-07-24T01:05:01;18.10;99.90
40253;DHT22;25972;51.854;4.534;2023-07-24T01:07:29;18.10;99.90
40253;DHT22;25972;51.854;4.534;2023-07-24T01:09:55;18.10;99.90
40253;DHT22;25972;51.854;4.534;2023-07-24T01:12:28;18.10;99.90
40253;DHT22;25972;51.854;4.534;2023-07-24T01:15:03;18.10;99.90
40253;DHT22;25972;51.854;4.534;2023-07-24T01:17:32;18.10;99.90
40253;DHT22;25972;51.854;4.534;2023-07-24T01:20:01;18.10;99.90
40253;DHT22;25972;51.854;4.534;2023-07-24T01:22:39;18.10;99.90
40253;DHT22;25972;51.854;4.534;2023-07-24T01:25:17;18.10;99.90
40253;DHT22;25972;51.854;4.534;2023-07-24T01:27:45;18.10;99.90
40253;DHT22;25972;51.854;4.534;2023-07-24T01:30:14;18.00;99.90
40253;DHT22;25972;51.854;4.534;2023-07-24T01:32:40;18.10;99.90
40253;DHT22;25972;51.854;4.534;2023-07-24T01:35:08;18.10;99.90
40253;DHT22;25972;51.854;4.534;2023-07-24T01:37:36;18.00;99.90
40253;DHT22;25972;51.854;4.534;2023-07-24T01:40:08;18.00;99.90
40253;DHT22;25972;51.854;4.534;2023-07-24T01:42:34;18.00;99.90
40253;DHT22;25972;51.854;4.534;2023-07-24T01:45:03;18.00;99.90
40253;DHT22;25972;51.854;4.534;2023-07-24T01:47:30;18.00;99.90
40253;DHT22;25972;51.854;4.534;2023-07-24T01:50:00;18.00;99.90
40253;DHT22;25972;51.854;4.534;2023-07-24T01:52:26;18.00;99.90
40253;DHT22;25972;51.854;4.534;2023-07-24T01:54:52;18.00;99.90
40253;DHT22;25972;51.854;4.534;2023-07-24T01:57:18;17.90;99.90
40253;DHT22;25972;51.854;4.534;2023-07-24T01:59:44;18.00;99.90
40253;DHT22;25972;51.854;4.534;2023-07-24T02:02:12;17.90;99.90
40253;DHT22;25972;51.854;4.534;2023-07-24T02:04:38;17.90;99.90
40253;DHT22;25972;51.854;4.534;2023-07-24T02:07:04;17.90;99.90
40253;DHT22;25972;51.854;4.534;2023-07-24T02:09:30;17.90;99.90
40253;DHT22;25972;51.854;4.534;2023-07-24T02:11:56;17.80;99.90
40253;DHT22;25972;51.854;4.534;2023-07-24T02:14:22;17.90;99.90
40253;DHT22;25972;51.854;4.534;2023-07-24T02:16:50;17.80;99.90
40253;DHT22;25972;51.854;4.534;2023-07-24T02:19:17;17.80;99.90
40253;DHT22;25972;51.854;4.534;2023-07-24T02:21:44;17.80;99.90
40253;DHT22;25972;51.854;4.534;2023-07-24T02:24:10;17.80;99.90
40253;DHT22;25972;51.854;4.534;2023-07-24T02:26:35;17.70;99.90
40253;DHT22;25972;51.854;4.534;2023-07-24T02:29:02;17.80;99.90
40253;DHT22;25972;51.854;4.534;2023-07-24T02:31:28;17.80;99.90
40253;DHT22;25972;51.854;4.534;2023-07-24T02:33:56;17.70;99.90
40253;DHT22;25972;51.854;4.534;2023-07-24T02:36:23;17.70;99.90
40253;DHT22;25972;51.854;4.534;2023-07-24T02:38:49;17.70;99.90
40253;DHT22;25972;51.854;4.534;2023-07-24T02:41:15;17.70;99.90
40253;DHT22;25972;51.854;4.534;2023-07-24T02:43:41;17.70;99.90
40253;DHT22;25972;51.854;4.534;2023-07-24T02:46:07;17.70;99.90
40253;DHT22;25972;51.854;4.534;2023-07-24T02:48:33;17.70;99.90
40253;DHT22;25972;51.854;4.534;2023-07-24T02:50:59;17.70;99.90
40253;DHT22;25972;51.854;4.534;2023-07-24T02:53:26;17.70;99.90
40253;DHT22;25972;51.854;4.534;2023-07-24T02:55:52;17.70;99.90
40253;DHT22;25972;51.854;4.534;2023-07-24T02:58:18;17.70;99.90
40253;DHT22;25972;51.854;4.534;2023-07-24T03:00:44;17.70;99.90
40253;DHT22;25972;51.854;4.534;2023-07-24T03:03:10;17.80;99.90
40253;DHT22;25972;51.854;4.534;2023-07-24T03:05:36;17.80;99.90
40253;DHT22;25972;51.854;4.534;2023-07-24T03:08:02;17.70;99.90
40253;DHT22;25972;51.854;4.534;2023-07-24T03:10:31;17.70;99.90
40253;DHT22;25972;51.854;4.534;2023-07-24T03:12:57;17.80;99.90
40253;DHT22;25972;51.854;4.534;2023-07-24T03:15:23;17.80;99.90
40253;DHT22;25972;51.854;4.534;2023-07-24T03:17:49;17.70;99.90
40253;DHT22;25972;51.854;4.534;2023-07-24T03:20:16;17.80;99.90
40253;DHT22;25972;51.854;4.534;2023-07-24T03:22:43;17.80;99.90
40253;DHT22;25972;51.854;4.534;2023-07-24T03:25:09;17.60;99.90
40253;DHT22;25972;51.854;4.534;2023-07-24T03:27:37;17.70;99.90
40253;DHT22;25972;51.854;4.534;2023-07-24T03:30:04;17.70;99.90
40253;DHT22;25972;51.854;4.534;2023-07-24T03:32:30;17.60;99.90
40253;DHT22;25972;51.854;4.534;2023-07-24T03:34:56;17.70;99.90
40253;DHT22;25972;51.854;4.534;2023-07-24T03:37:22;17.60;99.90
40253;DHT22;25972;51.854;4.534;2023-07-24T03:39:48;17.70;99.90
40253;DHT22;25972;51.854;4.534;2023-07-24T03:42:25;17.60;99.90
40253;DHT22;25972;51.854;4.534;2023-07-24T03:44:53;17.60;99.90
40253;DHT22;25972;51.854;4.534;2023-07-24T03:47:20;17.60;99.90
40253;DHT22;25972;51.854;4.534;2023-07-24T03:49:45;17.60;99.90
40253;DHT22;25972;51.854;4.534;2023-07-24T03:52:11;17.60;99.90
40253;DHT22;25972;51.854;4.534;2023-07-24T03:54:38;17.60;99.90
40253;DHT22;25972;51.854;4.534;2023-07-24T03:57:04;17.50;99.90
40253;DHT22;25972;51.854;4.534;2023-07-24T03:59:30;17.60;99.90
40253;DHT22;25972;51.854;4.534;2023-07-24T04:01:58;17.60;99.90
40253;DHT22;25972;51.854;4.534;2023-07-24T04:04:24;17.60;99.90
40253;DHT22;25972;51.854;4.534;2023-07-24T04:06:50;17.50;99.90
40253;DHT22;25972;51.854;4.534;2023-07-24T04:09:16;17.60;99.90
40253;DHT22;25972;51.854;4.534;2023-07-24T04:11:42;17.50;99.90
40253;DHT22;25972;51.854;4.534;2023-07-24T04:14:08;17.50;99.90
40253;DHT22;25972;51.854;4.534;2023-07-24T04:16:34;17.50;99.90
40253;DHT22;25972;51.854;4.534;2023-07-24T04:19:01;17.50;99.90
40253;DHT22;25972;51.854;4.534;2023-07-24T04:21:27;17.50;99.90
40253;DHT22;25972;51.854;4.534;2023-07-24T04:23:53;17.40;99.90
40253;DHT22;25972;51.854;4.534;2023-07-24T04:26:19;17.50;99.90
40253;DHT22;25972;51.854;4.534;2023-07-24T04:28:45;17.50;99.90
40253;DHT22;25972;51.854;4.534;2023-07-24T04:31:11;17.50;99.90
40253;DHT22;25972;51.854;4.534;2023-07-24T04:33:37;17.50;99.90
40253;DHT22;25972;51.854;4.534;2023-07-24T04:36:05;17.50;99.90
40253;DHT22;25972;51.854;4.534;2023-07-24T04:38:31;17.50;99.90
40253;DHT22;25972;51.854;4.534;2023-07-24T04:40:57;17.50;99.90
40253;DHT22;25972;51.854;4.534;2023-07-24T04:43:25;17.50;99.90
40253;DHT22;25972;51.854;4.534;2023-07-24T04:45:51;17.50;99.90
40253;DHT22;25972;51.854;4.534;2023-07-24T04:48:17;17.50;99.90
40253;DHT22;25972;51.854;4.534;2023-07-24T04:50:43;17.50;99.90
40253;DHT22;25972;51.854;4.534;2023-07-24T04:53:10;17.50;99.90
40253;DHT22;25972;51.854;4.534;2023-07-24T04:55:36;17.50;99.90
40253;DHT22;25972;51.854;4.534;2023-07-24T04:58:02;17.60;99.90
40253;DHT22;25972;51.854;4.534;2023-07-24T05:00:28;17.60;99.90
40253;DHT22;25972;51.854;4.534;2023-07-24T05:02:54;17.60;99.90
40253;DHT22;25972;51.854;4.534;2023-07-24T05:05:20;17.60;99.90
40253;DHT22;25972;51.854;4.534;2023-07-24T05:07:47;17.60;99.90
40253;DHT22;25972;51.854;4.534;2023-07-24T05:10:14;17.60;99.90
40253;DHT22;25972;51.854;4.534;2023-07-24T05:12:41;17.60;99.90
40253;DHT22;25972;51.854;4.534;2023-07-24T05:15:07;17.70;99.90
40253;DHT22;25972;51.854;4.534;2023-07-24T05:17:33;17.70;99.90
40253;DHT22;25972;51.854;4.534;2023-07-24T05:19:59;17.70;99.90
40253;DHT22;25972;51.854;4.534;2023-07-24T05:22:25;17.70;99.90
40253;DHT22;25972;51.854;4.534;2023-07-24T05:24:51;17.70;99.90
40253;DHT22;25972;51.854;4.534;2023-07-24T05:27:18;17.80;99.90
40253;DHT22;25972;51.854;4.534;2023-07-24T05:29:44;17.70;99.90
40253;DHT22;25972;51.854;4.534;2023-07-24T05:32:10;17.80;99.90
40253;DHT22;25972;51.854;4.534;2023-07-24T05:34:36;17.70;99.90
40253;DHT22;25972;51.854;4.534;2023-07-24T05:37:03;17.70;99.90
40253;DHT22;25972;51.854;4.534;2023-07-24T05:39:29;17.70;99.90
40253;DHT22;25972;51.854;4.534;2023-07-24T05:41:55;17.80;99.90
40253;DHT22;25972;51.854;4.534;2023-07-24T05:44:23;18.00;99.90
40253;DHT22;25972;51.854;4.534;2023-07-24T05:46:49;18.70;99.90
40253;DHT22;25972;51.854;4.534;2023-07-24T05:49:15;19.10;99.90
40253;DHT22;25972;51.854;4.534;2023-07-24T05:51:41;19.10;99.90
40253;DHT22;25972;51.854;4.534;2023-07-24T05:54:07;19.10;99.90
40253;DHT22;25972;51.854;4.534;2023-07-24T05:56:32;19.20;99.90
40253;DHT22;25972;51.854;4.534;2023-07-24T05:58:58;19.60;99.90
40253;DHT22;25972;51.854;4.534;2023-07-24T06:01:26;20.10;99.90
40253;DHT22;25972;51.854;4.534;2023-07-24T06:03:52;20.50;99.90
40253;DHT22;25972;51.854;4.534;2023-07-24T06:06:18;20.80;99.90
40253;DHT22;25972;51.854;4.534;2023-07-24T06:08:45;21.10;99.90
40253;DHT22;25972;51.854;4.534;2023-07-24T06:11:13;21.70;99.90
40253;DHT22;25972;51.854;4.534;2023-07-24T06:13:39;22.20;99.90
40253;DHT22;25972;51.854;4.534;2023-07-24T06:16:05;22.10;99.90
40253;DHT22;25972;51.854;4.534;2023-07-24T06:18:34;22.30;99.90
40253;DHT22;25972;51.854;4.534;2023-07-24T06:21:00;22.70;99.90
40253;DHT22;25972;51.854;4.534;2023-07-24T06:23:27;22.80;99.90
40253;DHT22;25972;51.854;4.534;2023-07-24T06:25:53;22.50;99.90
40253;DHT22;25972;51.854;4.534;2023-07-24T06:28:19;22.30;99.90
40253;DHT22;25972;51.854;4.534;2023-07-24T06:30:45;22.20;99.90
40253;DHT22;25972;51.854;4.534;2023-07-24T06:33:11;22.00;99.90
40253;DHT22;25972;51.854;4.534;2023-07-24T06:35:39;21.30;99.90
40253;DHT22;25972;51.854;4.534;2023-07-24T06:38:05;21.00;99.90
40253;DHT22;25972;51.854;4.534;2023-07-24T06:40:31;20.80;99.90
40253;DHT22;25972;51.854;4.534;2023-07-24T06:42:56;20.30;99.90
40253;DHT22;25972;51.854;4.534;2023-07-24T06:45:23;19.80;99.90
40253;DHT22;25972;51.854;4.534;2023-07-24T06:47:48;19.30;99.90
40253;DHT22;25972;51.854;4.534;2023-07-24T06:50:14;19.10;99.90
40253;DHT22;25972;51.854;4.534;2023-07-24T06:52:42;19.10;99.90
40253;DHT22;25972;51.854;4.534;2023-07-24T06:55:08;19.10;99.90
40253;DHT22;25972;51.854;4.534;2023-07-24T06:57:34;19.10;99.90
40253;DHT22;25972;51.854;4.534;2023-07-24T07:00:00;19.10;99.90
40253;DHT22;25972;51.854;4.534;2023-07-24T07:02:26;19.00;99.90
40253;DHT22;25972;51.854;4.534;2023-07-24T07:04:53;19.00;99.90
40253;DHT22;25972;51.854;4.534;2023-07-24T07:07:19;19.00;99.90
40253;DHT22;25972;51.854;4.534;2023-07-24T07:09:47;18.90;99.90
40253;DHT22;25972;51.854;4.534;2023-07-24T07:12:12;18.90;99.90
40253;DHT22;25972;51.854;4.534;2023-07-24T07:14:39;18.80;99.90
40253;DHT22;25972;51.854;4.534;2023-07-24T07:17:05;18.80;99.90
40253;DHT22;25972;51.854;4.534;2023-07-24T07:19:31;18.80;99.90
40253;DHT22;25972;51.854;4.534;2023-07-24T07:21:57;18.80;99.90
40253;DHT22;25972;51.854;4.534;2023-07-24T07:24:23;18.80;99.90
40253;DHT22;25972;51.854;4.534;2023-07-24T07:26:50;18.90;99.90
40253;DHT22;25972;51.854;4.534;2023-07-24T07:29:16;18.90;99.90
40253;DHT22;25972;51.854;4.534;2023-07-24T07:31:42;18.90;99.90
40253;DHT22;25972;51.854;4.534;2023-07-24T07:34:08;18.90;99.90
40253;DHT22;25972;51.854;4.534;2023-07-24T07:36:34;19.00;99.90
40253;DHT22;25972;51.854;4.534;2023-07-24T07:39:00;19.00;99.90
40253;DHT22;25972;51.854;4.534;2023-07-24T07:41:27;19.30;99.90
40253;DHT22;25972;51.854;4.534;2023-07-24T07:43:56;19.30;99.90
40253;DHT22;25972;51.854;4.534;2023-07-24T07:46:22;19.30;99.90
40253;DHT22;25972;51.854;4.534;2023-07-24T07:48:48;19.30;99.90
40253;DHT22;25972;51.854;4.534;2023-07-24T07:51:15;19.30;99.90
40253;DHT22;25972;51.854;4.534;2023-07-24T07:53:41;19.60;99.90
40253;DHT22;25972;51.854;4.534;2023-07-24T07:56:07;19.80;99.90
40253;DHT22;25972;51.854;4.534;2023-07-24T07:58:33;19.90;99.90
40253;DHT22;25972;51.854;4.534;2023-07-24T08:01:04;19.90;99.90
40253;DHT22;25972;51.854;4.534;2023-07-24T08:03:31;19.90;99.90
40253;DHT22;25972;51.854;4.534;2023-07-24T08:05:57;20.20;99.90
40253;DHT22;25972;51.854;4.534;2023-07-24T08:08:23;20.30;99.90
40253;DHT22;25972;51.854;4.534;2023-07-24T08:10:49;20.60;99.90
40253;DHT22;25972;51.854;4.534;2023-07-24T08:13:15;20.80;99.90
40253;DHT22;25972;51.854;4.534;2023-07-24T08:15:41;21.00;99.90
40253;DHT22;25972;51.854;4.534;2023-07-24T08:18:08;20.90;99.90
40253;DHT22;25972;51.854;4.534;2023-07-24T08:20:36;20.80;99.90
40253;DHT22;25972;51.854;4.534;2023-07-24T08:23:02;20.70;99.90
40253;DHT22;25972;51.854;4.534;2023-07-24T08:25:28;20.60;99.90
40253;DHT22;25972;51.854;4.534;2023-07-24T08:27:54;20.50;99.90
40253;DHT22;25972;51.854;4.534;2023-07-24T08:30:20;20.70;99.90
40253;DHT22;25972;51.854;4.534;2023-07-24T08:32:46;20.50;99.90
40253;DHT22;25972;51.854;4.534;2023-07-24T08:35:13;20.40;99.90
40253;DHT22;25972;51.854;4.534;2023-07-24T08:37:42;20.30;99.90
40253;DHT22;25972;51.854;4.534;2023-07-24T08:40:10;20.20;99.90
40253;DHT22;25972;51.854;4.534;2023-07-24T08:42:38;20.10;99.90
40253;DHT22;25972;51.854;4.534;2023-07-24T08:45:09;20.20;99.90
40253;DHT22;25972;51.854;4.534;2023-07-24T08:47:36;20.10;99.90
40253;DHT22;25972;51.854;4.534;2023-07-24T08:50:04;20.20;99.90
40253;DHT22;25972;51.854;4.534;2023-07-24T08:52:32;20.10;99.90
40253;DHT22;25972;51.854;4.534;2023-07-24T08:54:59;20.10;99.90
40253;DHT22;25972;51.854;4.534;2023-07-24T08:57:27;20.00;99.90
40253;DHT22;25972;51.854;4.534;2023-07-24T08:59:53;20.00;99.90
40253;DHT22;25972;51.854;4.534;2023-07-24T09:02:19;20.00;99.90
40253;DHT22;25972;51.854;4.534;2023-07-24T09:04:45;20.00;99.90
40253;DHT22;25972;51.854;4.534;2023-07-24T09:07:11;20.00;99.90
40253;DHT22;25972;51.854;4.534;2023-07-24T09:09:39;20.00;99.90
40253;DHT22;25972;51.854;4.534;2023-07-24T09:12:06;20.20;99.90
40253;DHT22;25972;51.854;4.534;2023-07-24T09:14:32;20.50;99.90
40253;DHT22;25972;51.854;4.534;2023-07-24T09:17:04;20.80;99.90
40253;DHT22;25972;51.854;4.534;2023-07-24T09:19:31;20.80;99.90
40253;DHT22;25972;51.854;4.534;2023-07-24T09:22:07;20.80;99.90
40253;DHT22;25972;51.854;4.534;2023-07-24T09:24:34;20.70;99.90
40253;DHT22;25972;51.854;4.534;2023-07-24T09:27:05;20.70;99.90
40253;DHT22;25972;51.854;4.534;2023-07-24T09:29:32;20.60;99.90
40253;DHT22;25972;51.854;4.534;2023-07-24T09:31:58;20.80;99.90
40253;DHT22;25972;51.854;4.534;2023-07-24T09:34:24;21.20;99.90
40253;DHT22;25972;51.854;4.534;2023-07-24T09:36:51;21.30;99.90
40253;DHT22;25972;51.854;4.534;2023-07-24T09:39:23;21.40;99.90
40253;DHT22;25972;51.854;4.534;2023-07-24T09:41:49;21.30;99.90
40253;DHT22;25972;51.854;4.534;2023-07-24T09:44:17;21.30;99.90
40253;DHT22;25972;51.854;4.534;2023-07-24T09:46:43;21.50;99.90
40253;DHT22;25972;51.854;4.534;2023-07-24T09:49:09;21.40;99.90
40253;DHT22;25972;51.854;4.534;2023-07-24T09:51:36;21.30;99.90
40253;DHT22;25972;51.854;4.534;2023-07-24T09:54:08;21.00;99.90
40253;DHT22;25972;51.854;4.534;2023-07-24T09:56:36;21.00;99.90
40253;DHT22;25972;51.854;4.534;2023-07-24T09:59:03;20.60;99.90
40253;DHT22;25972;51.854;4.534;2023-07-24T10:01:32;20.50;99.90
40253;DHT22;25972;51.854;4.534;2023-07-24T10:03:59;20.20;99.90
40253;DHT22;25972;51.854;4.534;2023-07-24T10:06:27;20.10;99.90
40253;DHT22;25972;51.854;4.534;2023-07-24T10:08:56;19.90;99.90
40253;DHT22;25972;51.854;4.534;2023-07-24T10:11:22;19.80;99.90
40253;DHT22;25972;51.854;4.534;2023-07-24T10:13:50;19.80;99.90
40253;DHT22;25972;51.854;4.534;2023-07-24T10:16:16;19.80;99.90
40253;DHT22;25972;51.854;4.534;2023-07-24T10:18:44;19.90;99.90
40253;DHT22;25972;51.854;4.534;2023-07-24T10:21:11;20.00;99.90
40253;DHT22;25972;51.854;4.534;2023-07-24T10:23:41;20.00;99.90
40253;DHT22;25972;51.854;4.534;2023-07-24T10:26:08;20.00;99.90
40253;DHT22;25972;51.854;4.534;2023-07-24T10:28:36;20.00;99.90
40253;DHT22;25972;51.854;4.534;2023-07-24T10:31:07;20.00;99.90
40253;DHT22;25972;51.854;4.534;2023-07-24T10:33:36;20.00;99.90
40253;DHT22;25972;51.854;4.534;2023-07-24T10:36:09;20.20;99.90
40253;DHT22;25972;51.854;4.534;2023-07-24T10:38:38;20.60;99.90
40253;DHT22;25972;51.854;4.534;2023-07-24T10:41:05;21.10;99.90
40253;DHT22;25972;51.854;4.534;2023-07-24T10:43:41;21.30;99.90
40253;DHT22;25972;51.854;4.534;2023-07-24T10:46:07;21.70;99.90
40253;DHT22;25972;51.854;4.534;2023-07-24T10:48:33;21.90;99.90
40253;DHT22;25972;51.854;4.534;2023-07-24T10:51:06;22.00;99.90
40253;DHT22;25972;51.854;4.534;2023-07-24T10:53:34;21.90;99.90
40253;DHT22;25972;51.854;4.534;2023-07-24T10:56:01;21.80;99.90
40253;DHT22;25972;51.854;4.534;2023-07-24T10:58:27;21.60;99.90
40253;DHT22;25972;51.854;4.534;2023-07-24T11:00:53;21.40;99.90
40253;DHT22;25972;51.854;4.534;2023-07-24T11:03:19;21.10;99.90
40253;DHT22;25972;51.854;4.534;2023-07-24T11:05:46;21.20;99.90
40253;DHT22;25972;51.854;4.534;2023-07-24T11:08:13;21.20;99.90
40253;DHT22;25972;51.854;4.534;2023-07-24T11:10:45;21.30;99.90
40253;DHT22;25972;51.854;4.534;2023-07-24T11:13:13;21.40;99.90
40253;DHT22;25972;51.854;4.534;2023-07-24T11:15:39;21.60;99.90
40253;DHT22;25972;51.854;4.534;2023-07-24T11:18:05;21.50;99.90
40253;DHT22;25972;51.854;4.534;2023-07-24T11:20:37;21.30;99.90
40253;DHT22;25972;51.854;4.534;2023-07-24T11:23:04;21.30;99.90
40253;DHT22;25972;51.854;4.534;2023-07-24T11:25:30;21.20;99.90
40253;DHT22;25972;51.854;4.534;2023-07-24T11:27:58;21.20;99.90
40253;DHT22;25972;51.854;4.534;2023-07-24T11:30:23;21.20;99.90
40253;DHT22;25972;51.854;4.534;2023-07-24T11:32:50;21.40;99.90
40253;DHT22;25972;51.854;4.534;2023-07-24T11:35:16;21.40;99.90
40253;DHT22;25972;51.854;4.534;2023-07-24T11:37:43;21.60;99.90
40253;DHT22;25972;51.854;4.534;2023-07-24T11:40:09;21.60;99.90
40253;DHT22;25972;51.854;4.534;2023-07-24T11:42:39;21.60;99.90
40253;DHT22;25972;51.854;4.534;2023-07-24T11:45:08;21.50;99.90
40253;DHT22;25972;51.854;4.534;2023-07-24T11:47:43;21.50;99.90
40253;DHT22;25972;51.854;4.534;2023-07-24T11:50:09;21.40;99.90
40253;DHT22;25972;51.854;4.534;2023-07-24T11:52:39;21.30;99.90
40253;DHT22;25972;51.854;4.534;2023-07-24T11:55:07;21.20;99.90
40253;DHT22;25972;51.854;4.534;2023-07-24T11:57:33;21.20;99.90
40253;DHT22;25972;51.854;4.534;2023-07-24T11:59:59;21.20;99.90
40253;DHT22;25972;51.854;4.534;2023-07-24T12:02:32;21.10;99.90
40253;DHT22;25972;51.854;4.534;2023-07-24T12:04:58;21.20;99.90
40253;DHT22;25972;51.854;4.534;2023-07-24T12:07:32;21.30;99.90
40253;DHT22;25972;51.854;4.534;2023-07-24T12:09:59;21.40;99.90
40253;DHT22;25972;51.854;4.534;2023-07-24T12:12:25;21.60;99.90
40253;DHT22;25972;51.854;4.534;2023-07-24T12:15:02;21.70;99.90
40253;DHT22;25972;51.854;4.534;2023-07-24T12:17:29;21.50;99.90
40253;DHT22;25972;51.854;4.534;2023-07-24T12:19:55;21.50;99.90
40253;DHT22;25972;51.854;4.534;2023-07-24T12:22:21;21.60;99.90
40253;DHT22;25972;51.854;4.534;2023-07-24T12:24:50;21.70;99.90
40253;DHT22;25972;51.854;4.534;2023-07-24T12:27:16;21.90;99.90
40253;DHT22;25972;51.854;4.534;2023-07-24T12:29:42;22.20;99.90
40253;DHT22;25972;51.854;4.534;2023-07-24T12:32:08;22.30;99.90
40253;DHT22;25972;51.854;4.534;2023-07-24T12:34:35;22.50;99.90
40253;DHT22;25972;51.854;4.534;2023-07-24T12:37:02;23.00;99.90
40253;DHT22;25972;51.854;4.534;2023-07-24T12:39:28;23.20;93.50
40253;DHT22;25972;51.854;4.534;2023-07-24T12:41:54;22.90;49.40
40253;DHT22;25972;51.854;4.534;2023-07-24T12:44:19;22.80;51.70
40253;DHT22;25972;51.854;4.534;2023-07-24T12:46:45;22.60;32.90
40253;DHT22;25972;51.854;4.534;2023-07-24T12:49:11;22.40;26.80
40253;DHT22;25972;51.854;4.534;2023-07-24T12:51:39;22.30;26.40
40253;DHT22;25972;51.854;4.534;2023-07-24T12:54:05;22.20;23.20
40253;DHT22;25972;51.854;4.534;2023-07-24T12:56:31;22.10;25.30
40253;DHT22;25972;51.854;4.534;2023-07-24T12:58:57;22.00;37.20
40253;DHT22;25972;51.854;4.534;2023-07-24T13:01:23;21.90;47.60
40253;DHT22;25972;51.854;4.534;2023-07-24T13:03:49;22.10;75.50
40253;DHT22;25972;51.854;4.534;2023-07-24T13:06:15;22.30;93.90
40253;DHT22;25972;51.854;4.534;2023-07-24T13:08:43;22.60;97.50
40253;DHT22;25972;51.854;4.534;2023-07-24T13:11:09;23.00;98.90
40253;DHT22;25972;51.854;4.534;2023-07-24T13:13:35;23.40;90.30
40253;DHT22;25972;51.854;4.534;2023-07-24T13:16:02;23.70;73.30
40253;DHT22;25972;51.854;4.534;2023-07-24T13:18:29;23.80;41.10
40253;DHT22;25972;51.854;4.534;2023-07-24T13:20:55;23.60;32.10
40253;DHT22;25972;51.854;4.534;2023-07-24T13:23:21;23.30;23.00
40253;DHT22;25972;51.854;4.534;2023-07-24T13:25:48;23.00;24.90
40253;DHT22;25972;51.854;4.534;2023-07-24T13:28:16;22.70;41.40
40253;DHT22;25972;51.854;4.534;2023-07-24T13:30:42;22.40;64.00
40253;DHT22;25972;51.854;4.534;2023-07-24T13:33:08;22.10;81.40
40253;DHT22;25972;51.854;4.534;2023-07-24T13:35:34;22.00;95.40
40253;DHT22;25972;51.854;4.534;2023-07-24T13:38:00;21.80;97.90
40253;DHT22;25972;51.854;4.534;2023-07-24T13:40:26;21.70;99.90
40253;DHT22;25972;51.854;4.534;2023-07-24T13:42:53;21.20;99.90
40253;DHT22;25972;51.854;4.534;2023-07-24T13:45:20;20.80;99.90
40253;DHT22;25972;51.854;4.534;2023-07-24T13:47:45;20.70;99.90
40253;DHT22;25972;51.854;4.534;2023-07-24T13:50:11;20.60;99.90
40253;DHT22;25972;51.854;4.534;2023-07-24T13:52:37;20.50;99.90
40253;DHT22;25972;51.854;4.534;2023-07-24T13:55:04;20.50;99.90
40253;DHT22;25972;51.854;4.534;2023-07-24T13:57:30;20.60;99.90
40253;DHT22;25972;51.854;4.534;2023-07-24T13:59:57;20.70;99.90
40253;DHT22;25972;51.854;4.534;2023-07-24T14:02:23;20.80;99.90
40253;DHT22;25972;51.854;4.534;2023-07-24T14:04:49;21.00;99.90
40253;DHT22;25972;51.854;4.534;2023-07-24T14:07:15;21.00;99.90
40253;DHT22;25972;51.854;4.534;2023-07-24T14:09:41;20.90;99.90
40253;DHT22;25972;51.854;4.534;2023-07-24T14:12:07;20.80;99.90
40253;DHT22;25972;51.854;4.534;2023-07-24T14:14:33;20.60;99.90
40253;DHT22;25972;51.854;4.534;2023-07-24T14:17:01;20.60;99.90
40253;DHT22;25972;51.854;4.534;2023-07-24T14:19:27;20.50;99.90
40253;DHT22;25972;51.854;4.534;2023-07-24T14:21:53;20.40;99.90
40253;DHT22;25972;51.854;4.534;2023-07-24T14:24:19;20.20;99.90
40253;DHT22;25972;51.854;4.534;2023-07-24T14:26:45;20.20;99.90
40253;DHT22;25972;51.854;4.534;2023-07-24T14:29:11;20.00;99.90
40253;DHT22;25972;51.854;4.534;2023-07-24T14:31:37;20.00;99.90
40253;DHT22;25972;51.854;4.534;2023-07-24T14:34:04;20.00;99.90
40253;DHT22;25972;51.854;4.534;2023-07-24T14:36:32;20.10;99.90
40253;DHT22;25972;51.854;4.534;2023-07-24T14:38:59;20.40;99.90
40253;DHT22;25972;51.854;4.534;2023-07-24T14:41:26;20.60;99.90
40253;DHT22;25972;51.854;4.534;2023-07-24T14:43:52;20.70;99.90
40253;DHT22;25972;51.854;4.534;2023-07-24T14:46:18;20.80;99.90
40253;DHT22;25972;51.854;4.534;2023-07-24T14:48:44;20.70;99.90
40253;DHT22;25972;51.854;4.534;2023-07-24T14:51:11;20.60;99.90
40253;DHT22;25972;51.854;4.534;2023-07-24T14:53:37;20.60;99.90
40253;DHT22;25972;51.854;4.534;2023-07-24T14:56:03;20.50;99.90
40253;DHT22;25972;51.854;4.534;2023-07-24T14:58:29;20.40;99.90
40253;DHT22;25972;51.854;4.534;2023-07-24T15:00:55;20.40;99.90
40253;DHT22;25972;51.854;4.534;2023-07-24T15:03:22;20.20;99.90
40253;DHT22;25972;51.854;4.534;2023-07-24T15:05:48;20.10;99.90
40253;DHT22;25972;51.854;4.534;2023-07-24T15:08:15;20.00;99.90
40253;DHT22;25972;51.854;4.534;2023-07-24T15:10:42;19.80;99.90
40253;DHT22;25972;51.854;4.534;2023-07-24T15:13:09;19.70;99.90
40253;DHT22;25972;51.854;4.534;2023-07-24T15:15:35;19.50;99.90
40253;DHT22;25972;51.854;4.534;2023-07-24T15:18:01;19.40;99.90
40253;DHT22;25972;51.854;4.534;2023-07-24T15:20:27;19.30;99.90
40253;DHT22;25972;51.854;4.534;2023-07-24T15:22:53;19.30;99.90
40253;DHT22;25972;51.854;4.534;2023-07-24T15:25:21;19.30;99.90
40253;DHT22;25972;51.854;4.534;2023-07-24T15:27:47;19.50;99.90